sensor_id;sensor_type;location;lat;lon;timestamp;temperature;humidity
5392;DHT22;2719;53.624;9.786;2024-01-15T00:00:10;2.20;99.90
5392;DHT22;2719;53.624;9.786;2024-01-15T00:02:37;2.20;99.90
5392;DHT22;2719;53.624;9.786;2024-01-15T00:05:05;2.10;99.90
5392;DHT22;2719;53.624;9.786;2024-01-15T00:07:32;2.10;99.90
5392;DHT22;2719;53.624;9.786;2024-01-15T00:09:59;2.10;99.90
5392;DHT22;2719;53.624;9.786;2024-01-15T00:12:25;2.10;99.90
5392;DHT22;2719;53.624;9.786;2024-01-15T00:14:52;2.10;99.90
5392;DHT22;2719;53.624;9.786;2024-01-15T00:17:19;2.10;99.90
5392;DHT22;2719;53.624;9.786;2024-01-15T00:19:46;2.10;99.90
5392;DHT22;2719;53.624;9.786;2024-01-15T00:22:14;2.10;99.90
5392;DHT22;2719;53.624;9.786;2024-01-15T00:24:40;2.10;99.90
5392;DHT22;2719;53.624;9.786;2024-01-15T00:27:07;2.10;99.90
5392;DHT22;2719;53.624;9.786;2024-01-15T00:29:33;2.00;99.90
5392;DHT22;2719;53.624;9.786;2024-01-15T00:32:00;2.00;99.90
5392;DHT22;2719;53.624;9.786;2024-01-15T00:34:27;2.00;99.90
5392;DHT22;2719;53.624;9.786;2024-01-15T00:36:54;2.10;99.90
5392;DHT22;2719;53.624;9.786;2024-01-15T00:39:21;2.10;99.90
5392;DHT22;2719;53.624;9.786;2024-01-15T00:41:48;2.00;99.90
5392;DHT22;2719;53.624;9.786;2024-01-15T00:44:15;1.90;99.90
5392;DHT22;2719;53.624;9.786;2024-01-15T00:46:43;2.00;99.90
5392;DHT22;2719;53.624;9.786;2024-01-15T00:49:10;2.00;99.90
5392;DHT22;2719;53.624;9.786;2024-01-15T00:51:38;2.00;99.90
5392;DHT22;2719;53.624;9.786;2024-01-15T00:54:05;1.90;99.90
5392;DHT22;2719;53.624;9.786;2024-01-15T00:56:32;1.90;99.90
5392;DHT22;2719;53.624;9.786;2024-01-15T00:59:00;1.90;99.90
5392;DHT22;2719;53.624;9.786;2024-01-15T01:01:26;2.00;99.90
5392;DHT22;2719;53.624;9.786;2024-01-15T01:03:53;2.00;99.90
5392;DHT22;2719;53.624;9.786;2024-01-15T01:06:19;2.00;99.90
5392;DHT22;2719;53.624;9.786;2024-01-15T01:08:46;2.00;99.90
5392;DHT22;2719;53.624;9.786;2024-01-15T01:11:13;2.10;99.90
5392;DHT22;2719;53.624;9.786;2024-01-15T01:13:41;2.10;99.90
5392;DHT22;2719;53.624;9.786;2024-01-15T01:16:08;2.10;99.90
5392;DHT22;2719;53.624;9.786;2024-01-15T01:18:34;2.20;99.90
5392;DHT22;2719;53.624;9.786;2024-01-15T01:21:01;2.20;99.90
5392;DHT22;2719;53.624;9.786;2024-01-15T01:23:28;2.20;99.90
5392;DHT22;2719;53.624;9.786;2024-01-15T01:25:54;2.30;99.90
5392;DHT22;2719;53.624;9.786;2024-01-15T01:28:21;2.20;99.90
5392;DHT22;2719;53.624;9.786;2024-01-15T01:30:49;2.20;99.90
5392;DHT22;2719;53.624;9.786;2024-01-15T01:33:16;2.30;99.90
5392;DHT22;2719;53.624;9.786;2024-01-15T01:35:42;2.40;99.90
5392;DHT22;2719;53.624;9.786;2024-01-15T01:38:10;2.40;99.90
5392;DHT22;2719;53.624;9.786;2024-01-15T01:40:37;2.40;99.90
5392;DHT22;2719;53.624;9.786;2024-01-15T01:43:04;2.40;99.90
5392;DHT22;2719;53.624;9.786;2024-01-15T01:45:31;2.40;99.90
5392;DHT22;2719;53.624;9.786;2024-01-15T01:47:59;2.40;99.90
5392;DHT22;2719;53.624;9.786;2024-01-15T01:50:26;2.40;99.90
5392;DHT22;2719;53.624;9.786;2024-01-15T01:52:53;2.40;99.90
5392;DHT22;2719;53.624;9.786;2024-01-15T01:55:21;2.40;99.90
5392;DHT22;2719;53.624;9.786;2024-01-15T01:57:50;2.40;99.90
5392;DHT22;2719;53.624;9.786;2024-01-15T02:00:17;2.40;99.90
5392;DHT22;2719;53.624;9.786;2024-01-15T02:02:45;2.40;99.90
5392;DHT22;2719;53.624;9.786;2024-01-15T02:05:14;2.40;99.90
5392;DHT22;2719;53.624;9.786;2024-01-15T02:07:44;2.40;99.90
5392;DHT22;2719;53.624;9.786;2024-01-15T02:10:11;2.40;99.90
5392;DHT22;2719;53.624;9.786;2024-01-15T02:12:37;2.40;99.90
5392;DHT22;2719;53.624;9.786;2024-01-15T02:15:04;2.30;99.90
5392;DHT22;2719;53.624;9.786;2024-01-15T02:17:31;2.30;99.90
5392;DHT22;2719;53.624;9.786;2024-01-15T02:19:58;2.30;99.90
5392;DHT22;2719;53.624;9.786;2024-01-15T02:22:26;2.30;99.90
5392;DHT22;2719;53.624;9.786;2024-01-15T02:24:53;2.30;99.90
5392;DHT22;2719;53.624;9.786;2024-01-15T02:27:20;2.30;99.90
5392;DHT22;2719;53.624;9.786;2024-01-15T02:29:48;2.30;99.90
5392;DHT22;2719;53.624;9.786;2024-01-15T02:32:14;2.30;99.90
5392;DHT22;2719;53.624;9.786;2024-01-15T02:34:41;2.30;99.90
5392;DHT22;2719;53.624;9.786;2024-01-15T02:37:08;2.40;99.90
5392;DHT22;2719;53.624;9.786;2024-01-15T02:39:34;2.40;99.90
5392;DHT22;2719;53.624;9.786;2024-01-15T02:42:02;2.40;99.90
5392;DHT22;2719;53.624;9.786;2024-01-15T02:44:29;2.40;99.90
5392;DHT22;2719;53.624;9.786;2024-01-15T02:46:55;2.40;99.90
5392;DHT22;2719;53.624;9.786;2024-01-15T02:49:22;2.40;99.90
5392;DHT22;2719;53.624;9.786;2024-01-15T02:51:49;2.30;99.90
5392;DHT22;2719;53.624;9.786;2024-01-15T02:54:15;2.40;99.90
5392;DHT22;2719;53.624;9.786;2024-01-15T02:56:42;2.40;99.90
5392;DHT22;2719;53.624;9.786;2024-01-15T02:59:10;2.40;99.90
5392;DHT22;2719;53.624;9.786;2024-01-15T03:01:36;2.50;99.90
5392;DHT22;2719;53.624;9.786;2024-01-15T03:04:03;2.50;99.90
5392;DHT22;2719;53.624;9.786;2024-01-15T03:06:30;2.40;99.90
5392;DHT22;2719;53.624;9.786;2024-01-15T03:08:56;2.50;99.90
5392;DHT22;2719;53.624;9.786;2024-01-15T03:11:23;2.40;99.90
5392;DHT22;2719;53.624;9.786;2024-01-15T03:13:50;2.50;99.90
5392;DHT22;2719;53.624;9.786;2024-01-15T03:16:18;2.50;99.90
5392;DHT22;2719;53.624;9.786;2024-01-15T03:18:46;2.50;99.90
5392;DHT22;2719;53.624;9.786;2024-01-15T03:21:12;2.50;99.90
5392;DHT22;2719;53.624;9.786;2024-01-15T03:23:39;2.50;99.90
5392;DHT22;2719;53.624;9.786;2024-01-15T03:26:05;2.50;99.90
5392;DHT22;2719;53.624;9.786;2024-01-15T03:28:32;2.60;99.90
5392;DHT22;2719;53.624;9.786;2024-01-15T03:30:59;2.60;99.90
5392;DHT22;2719;53.624;9.786;2024-01-15T03:33:27;2.50;99.90
5392;DHT22;2719;53.624;9.786;2024-01-15T03:35:53;2.50;99.90
5392;DHT22;2719;53.624;9.786;2024-01-15T03:38:20;2.50;99.90
5392;DHT22;2719;53.624;9.786;2024-01-15T03:40:47;2.50;99.90
5392;DHT22;2719;53.624;9.786;2024-01-15T03:43:13;2.50;99.90
5392;DHT22;2719;53.624;9.786;2024-01-15T03:45:40;2.50;99.90
5392;DHT22;2719;53.624;9.786;2024-01-15T03:48:06;2.50;99.90
5392;DHT22;2719;53.624;9.786;2024-01-15T03:50:34;2.50;99.90
5392;DHT22;2719;53.624;9.786;2024-01-15T03:53:01;2.50;99.90
5392;DHT22;2719;53.624;9.786;2024-01-15T03:55:28;2.60;99.90
5392;DHT22;2719;53.624;9.786;2024-01-15T03:57:54;2.60;99.90
5392;DHT22;2719;53.624;9.786;2024-01-15T04:00:21;2.60;99.90
5392;DHT22;2719;53.624;9.786;2024-01-15T04:02:47;2.60;99.90
5392;DHT22;2719;53.624;9.786;2024-01-15T04:05:14;2.70;99.90
5392;DHT22;2719;53.624;9.786;2024-01-15T04:07:42;2.60;99.90
5392;DHT22;2719;53.624;9.786;2024-01-15T04:10:09;2.70;99.90
5392;DHT22;2719;53.624;9.786;2024-01-15T04:12:35;2.80;99.90
5392;DHT22;2719;53.624;9.786;2024-01-15T04:15:02;2.80;99.90
5392;DHT22;2719;53.624;9.786;2024-01-15T04:17:29;2.80;99.90
5392;DHT22;2719;53.624;9.786;2024-01-15T04:19:56;2.80;99.90
5392;DHT22;2719;53.624;9.786;2024-01-15T04:22:23;2.80;99.90
5392;DHT22;2719;53.624;9.786;2024-01-15T04:24:50;2.90;99.90
5392;DHT22;2719;53.624;9.786;2024-01-15T04:27:17;2.90;99.90
5392;DHT22;2719;53.624;9.786;2024-01-15T04:29:44;2.90;99.90
5392;DHT22;2719;53.624;9.786;2024-01-15T04:32:11;2.90;99.90
5392;DHT22;2719;53.624;9.786;2024-01-15T04:34:37;2.90;99.90
5392;DHT22;2719;53.624;9.786;2024-01-15T04:37:04;3.00;99.90
5392;DHT22;2719;53.624;9.786;2024-01-15T04:39:30;3.00;99.90
5392;DHT22;2719;53.624;9.786;2024-01-15T04:41:58;3.00;99.90
5392;DHT22;2719;53.624;9.786;2024-01-15T04:44:25;3.00;99.90
5392;DHT22;2719;53.624;9.786;2024-01-15T04:46:52;3.00;99.90
5392;DHT22;2719;53.624;9.786;2024-01-15T04:49:18;3.00;99.90
5392;DHT22;2719;53.624;9.786;2024-01-15T04:51:45;3.10;99.90
5392;DHT22;2719;53.624;9.786;2024-01-15T04:54:11;3.10;99.90
5392;DHT22;2719;53.624;9.786;2024-01-15T04:56:38;3.10;99.90
5392;DHT22;2719;53.624;9.786;2024-01-15T04:59:06;3.10;99.90
5392;DHT22;2719;53.624;9.786;2024-01-15T05:01:33;3.20;99.90
5392;DHT22;2719;53.624;9.786;2024-01-15T05:03:59;3.10;99.90
5392;DHT22;2719;53.624;9.786;2024-01-15T05:06:26;3.10;99.90
5392;DHT22;2719;53.624;9.786;2024-01-15T05:08:53;3.10;99.90
5392;DHT22;2719;53.624;9.786;2024-01-15T05:11:19;3.10;99.90
5392;DHT22;2719;53.624;9.786;2024-01-15T05:13:46;3.00;99.90
5392;DHT22;2719;53.624;9.786;2024-01-15T05:16:14;3.00;99.90
5392;DHT22;2719;53.624;9.786;2024-01-15T05:18:41;3.10;99.90
5392;DHT22;2719;53.624;9.786;2024-01-15T05:21:08;3.00;99.90
5392;DHT22;2719;53.624;9.786;2024-01-15T05:23:35;3.00;99.90
5392;DHT22;2719;53.624;9.786;2024-01-15T05:26:02;3.00;99.90
5392;DHT22;2719;53.624;9.786;2024-01-15T05:28:28;3.00;99.90
5392;DHT22;2719;53.624;9.786;2024-01-15T05:30:55;3.00;99.90
5392;DHT22;2719;53.624;9.786;2024-01-15T05:33:23;3.00;99.90
5392;DHT22;2719;53.624;9.786;2024-01-15T05:35:50;3.00;99.90
5392;DHT22;2719;53.624;9.786;2024-01-15T05:38:15;3.10;99.90
5392;DHT22;2719;53.624;9.786;2024-01-15T05:40:42;3.10;99.90
5392;DHT22;2719;53.624;9.786;2024-01-15T05:43:09;3.10;99.90
5392;DHT22;2719;53.624;9.786;2024-01-15T05:45:37;3.00;99.90
5392;DHT22;2719;53.624;9.786;2024-01-15T05:48:05;3.00;99.90
5392;DHT22;2719;53.624;9.786;2024-01-15T05:50:33;3.00;99.90
5392;DHT22;2719;53.624;9.786;2024-01-15T05:52:59;3.10;99.90
5392;DHT22;2719;53.624;9.786;2024-01-15T05:55:26;3.10;99.90
5392;DHT22;2719;53.624;9.786;2024-01-15T05:57:52;3.10;99.90
5392;DHT22;2719;53.624;9.786;2024-01-15T06:00:19;3.20;99.90
5392;DHT22;2719;53.624;9.786;2024-01-15T06:02:46;3.20;99.90
5392;DHT22;2719;53.624;9.786;2024-01-15T06:05:12;3.20;99.90
5392;DHT22;2719;53.624;9.786;2024-01-15T06:07:41;3.20;99.90
5392;DHT22;2719;53.624;9.786;2024-01-15T06:10:08;3.20;99.90
5392;DHT22;2719;53.624;9.786;2024-01-15T06:12:35;3.10;99.90
5392;DHT22;2719;53.624;9.786;2024-01-15T06:15:01;3.20;99.90
5392;DHT22;2719;53.624;9.786;2024-01-15T06:17:28;3.20;99.90
5392;DHT22;2719;53.624;9.786;2024-01-15T06:19:54;3.30;99.90
5392;DHT22;2719;53.624;9.786;2024-01-15T06:22:22;3.20;99.90
5392;DHT22;2719;53.624;9.786;2024-01-15T06:24:50;3.30;99.90
5392;DHT22;2719;53.624;9.786;2024-01-15T06:27:17;3.30;99.90
5392;DHT22;2719;53.624;9.786;2024-01-15T06:29:45;3.30;99.90
5392;DHT22;2719;53.624;9.786;2024-01-15T06:32:13;3.30;99.90
5392;DHT22;2719;53.624;9.786;2024-01-15T06:34:40;3.30;99.90
5392;DHT22;2719;53.624;9.786;2024-01-15T06:37:07;3.40;99.90
5392;DHT22;2719;53.624;9.786;2024-01-15T06:39:34;3.40;99.90
5392;DHT22;2719;53.624;9.786;2024-01-15T06:42:02;3.40;99.90
5392;DHT22;2719;53.624;9.786;2024-01-15T06:44:28;3.30;99.90
5392;DHT22;2719;53.624;9.786;2024-01-15T06:46:55;3.30;99.90
5392;DHT22;2719;53.624;9.786;2024-01-15T06:49:26;3.30;99.90
5392;DHT22;2719;53.624;9.786;2024-01-15T06:51:52;3.30;99.90
5392;DHT22;2719;53.624;9.786;2024-01-15T06:54:19;3.30;99.90
5392;DHT22;2719;53.624;9.786;2024-01-15T06:56:45;3.10;99.90
5392;DHT22;2719;53.624;9.786;2024-01-15T06:59:13;3.10;99.90
5392;DHT22;2719;53.624;9.786;2024-01-15T07:01:40;3.10;99.90
5392;DHT22;2719;53.624;9.786;2024-01-15T07:04:07;3.10;99.90
5392;DHT22;2719;53.624;9.786;2024-01-15T07:06:33;3.10;99.90
5392;DHT22;2719;53.624;9.786;2024-01-15T07:09:00;3.10;99.90
5392;DHT22;2719;53.624;9.786;2024-01-15T07:11:26;3.10;99.90
5392;DHT22;2719;53.624;9.786;2024-01-15T07:13:53;3.10;99.90
5392;DHT22;2719;53.624;9.786;2024-01-15T07:16:21;3.00;99.90
5392;DHT22;2719;53.624;9.786;2024-01-15T07:18:47;3.00;99.90
5392;DHT22;2719;53.624;9.786;2024-01-15T07:21:14;3.00;99.90
5392;DHT22;2719;53.624;9.786;2024-01-15T07:23:41;3.00;99.90
5392;DHT22;2719;53.624;9.786;2024-01-15T07:26:07;3.10;99.90
5392;DHT22;2719;53.624;9.786;2024-01-15T07:28:34;3.20;99.90
5392;DHT22;2719;53.624;9.786;2024-01-15T07:31:01;3.10;99.90
5392;DHT22;2719;53.624;9.786;2024-01-15T07:33:30;3.10;99.90
5392;DHT22;2719;53.624;9.786;2024-01-15T07:35:57;3.10;99.90
5392;DHT22;2719;53.624;9.786;2024-01-15T07:38:23;3.10;99.90
5392;DHT22;2719;53.624;9.786;2024-01-15T07:40:50;3.10;99.90
5392;DHT22;2719;53.624;9.786;2024-01-15T07:43:16;3.10;99.90
5392;DHT22;2719;53.624;9.786;2024-01-15T07:45:43;3.10;99.90
5392;DHT22;2719;53.624;9.786;2024-01-15T07:48:10;3.10;99.90
5392;DHT22;2719;53.624;9.786;2024-01-15T07:50:38;3.10;99.90
5392;DHT22;2719;53.624;9.786;2024-01-15T07:53:05;3.10;99.90
5392;DHT22;2719;53.624;9.786;2024-01-15T07:55:32;3.10;99.90
5392;DHT22;2719;53.624;9.786;2024-01-15T07:57:58;3.00;99.90
5392;DHT22;2719;53.624;9.786;2024-01-15T08:00:25;3.00;99.90
5392;DHT22;2719;53.624;9.786;2024-01-15T08:02:52;2.90;99.90
5392;DHT22;2719;53.624;9.786;2024-01-15T08:05:18;2.90;99.90
5392;DHT22;2719;53.624;9.786;2024-01-15T08:07:47;2.90;99.90
5392;DHT22;2719;53.624;9.786;2024-01-15T08:10:14;2.90;99.90
5392;DHT22;2719;53.624;9.786;2024-01-15T08:12:41;2.90;99.90
5392;DHT22;2719;53.624;9.786;2024-01-15T08:15:08;2.90;99.90
5392;DHT22;2719;53.624;9.786;2024-01-15T08:17:35;2.80;99.90
5392;DHT22;2719;53.624;9.786;2024-01-15T08:20:02;2.80;99.90
5392;DHT22;2719;53.624;9.786;2024-01-15T08:22:30;2.80;99.90
5392;DHT22;2719;53.624;9.786;2024-01-15T08:24:58;2.80;99.90
5392;DHT22;2719;53.624;9.786;2024-01-15T08:27:24;2.80;99.90
5392;DHT22;2719;53.624;9.786;2024-01-15T08:29:51;2.70;99.90
5392;DHT22;2719;53.624;9.786;2024-01-15T08:32:18;2.80;99.90
5392;DHT22;2719;53.624;9.786;2024-01-15T08:34:44;2.70;99.90
5392;DHT22;2719;53.624;9.786;2024-01-15T08:37:12;2.80;99.90
5392;DHT22;2719;53.624;9.786;2024-01-15T08:39:39;2.70;99.90
5392;DHT22;2719;53.624;9.786;2024-01-15T08:42:07;2.70;99.90
5392;DHT22;2719;53.624;9.786;2024-01-15T08:44:34;2.70;99.90
5392;DHT22;2719;53.624;9.786;2024-01-15T08:47:00;2.60;99.90
5392;DHT22;2719;53.624;9.786;2024-01-15T08:49:28;2.60;99.90
5392;DHT22;2719;53.624;9.786;2024-01-15T08:51:54;2.60;99.90
5392;DHT22;2719;53.624;9.786;2024-01-15T08:54:21;2.50;99.90
5392;DHT22;2719;53.624;9.786;2024-01-15T08:56:48;2.50;99.90
5392;DHT22;2719;53.624;9.786;2024-01-15T08:59:16;2.40;99.90
5392;DHT22;2719;53.624;9.786;2024-01-15T09:01:45;2.50;99.90
5392;DHT22;2719;53.624;9.786;2024-01-15T09:04:12;2.50;99.90
5392;DHT22;2719;53.624;9.786;2024-01-15T09:06:39;2.50;99.90
5392;DHT22;2719;53.624;9.786;2024-01-15T09:09:06;2.60;99.90
5392;DHT22;2719;53.624;9.786;2024-01-15T09:11:32;2.60;99.90
5392;DHT22;2719;53.624;9.786;2024-01-15T09:13:59;2.50;99.90
5392;DHT22;2719;53.624;9.786;2024-01-15T09:16:27;2.50;99.90
5392;DHT22;2719;53.624;9.786;2024-01-15T09:18:53;2.50;99.90
5392;DHT22;2719;53.624;9.786;2024-01-15T09:21:22;2.60;99.90
5392;DHT22;2719;53.624;9.786;2024-01-15T09:23:49;2.60;99.90
5392;DHT22;2719;53.624;9.786;2024-01-15T09:26:16;3.00;99.90
5392;DHT22;2719;53.624;9.786;2024-01-15T09:28:43;2.90;99.90
5392;DHT22;2719;53.624;9.786;2024-01-15T09:31:09;2.90;99.90
5392;DHT22;2719;53.624;9.786;2024-01-15T09:33:38;2.80;99.90
5392;DHT22;2719;53.624;9.786;2024-01-15T09:36:05;2.80;99.90
5392;DHT22;2719;53.624;9.786;2024-01-15T09:38:32;2.80;99.90
5392;DHT22;2719;53.624;9.786;2024-01-15T09:40:59;2.90;99.90
5392;DHT22;2719;53.624;9.786;2024-01-15T09:43:26;2.90;99.90
5392;DHT22;2719;53.624;9.786;2024-01-15T09:45:54;3.00;99.90
5392;DHT22;2719;53.624;9.786;2024-01-15T09:48:21;3.00;99.90
5392;DHT22;2719;53.624;9.786;2024-01-15T09:50:49;2.80;99.90
5392;DHT22;2719;53.624;9.786;2024-01-15T09:53:16;2.60;99.90
5392;DHT22;2719;53.624;9.786;2024-01-15T09:55:44;2.50;99.90
5392;DHT22;2719;53.624;9.786;2024-01-15T09:58:10;2.40;99.90
5392;DHT22;2719;53.624;9.786;2024-01-15T10:00:39;2.40;99.90
5392;DHT22;2719;53.624;9.786;2024-01-15T10:03:07;2.40;99.90
5392;DHT22;2719;53.624;9.786;2024-01-15T10:05:35;2.40;99.90
5392;DHT22;2719;53.624;9.786;2024-01-15T10:08:04;2.40;99.90
5392;DHT22;2719;53.624;9.786;2024-01-15T10:10:31;2.40;99.90
5392;DHT22;2719;53.624;9.786;2024-01-15T10:12:58;2.40;99.90
5392;DHT22;2719;53.624;9.786;2024-01-15T10:15:25;2.30;99.90
5392;DHT22;2719;53.624;9.786;2024-01-15T10:17:52;2.30;99.90
5392;DHT22;2719;53.624;9.786;2024-01-15T10:20:18;2.40;99.90
5392;DHT22;2719;53.624;9.786;2024-01-15T10:22:47;2.40;99.90
5392;DHT22;2719;53.624;9.786;2024-01-15T10:25:15;2.40;99.90
5392;DHT22;2719;53.624;9.786;2024-01-15T10:27:59;2.30;99.90
5392;DHT22;2719;53.624;9.786;2024-01-15T10:30:26;2.10;99.90
5392;DHT22;2719;53.624;9.786;2024-01-15T10:32:58;2.00;99.90
5392;DHT22;2719;53.624;9.786;2024-01-15T10:35:27;1.90;99.90
5392;DHT22;2719;53.624;9.786;2024-01-15T10:37:53;1.90;99.90
5392;DHT22;2719;53.624;9.786;2024-01-15T10:40:21;1.90;99.90
5392;DHT22;2719;53.624;9.786;2024-01-15T10:42:48;2.00;99.90
5392;DHT22;2719;53.624;9.786;2024-01-15T10:45:15;2.10;99.90
5392;DHT22;2719;53.624;9.786;2024-01-15T10:47:42;2.10;99.90
5392;DHT22;2719;53.624;9.786;2024-01-15T10:50:09;2.10;99.90
5392;DHT22;2719;53.624;9.786;2024-01-15T10:52:37;2.20;99.90
5392;DHT22;2719;53.624;9.786;2024-01-15T10:55:07;2.10;99.90
5392;DHT22;2719;53.624;9.786;2024-01-15T10:57:36;2.10;99.90
5392;DHT22;2719;53.624;9.786;2024-01-15T11:00:05;2.10;99.90
5392;DHT22;2719;53.624;9.786;2024-01-15T11:02:32;2.10;99.90
5392;DHT22;2719;53.624;9.786;2024-01-15T11:05:00;2.20;99.90
5392;DHT22;2719;53.624;9.786;2024-01-15T11:07:26;2.20;99.90
5392;DHT22;2719;53.624;9.786;2024-01-15T11:09:53;2.20;99.90
5392;DHT22;2719;53.624;9.786;2024-01-15T11:12:20;2.10;99.90
5392;DHT22;2719;53.624;9.786;2024-01-15T11:14:49;2.20;99.90
5392;DHT22;2719;53.624;9.786;2024-01-15T11:17:17;2.20;99.90
5392;DHT22;2719;53.624;9.786;2024-01-15T11:19:45;2.20;99.90
5392;DHT22;2719;53.624;9.786;2024-01-15T11:25:13;2.40;99.90
5392;DHT22;2719;53.624;9.786;2024-01-15T11:27:41;2.40;99.90
5392;DHT22;2719;53.624;9.786;2024-01-15T11:30:11;2.30;99.90
5392;DHT22;2719;53.624;9.786;2024-01-15T11:32:39;2.40;99.90
5392;DHT22;2719;53.624;9.786;2024-01-15T11:35:07;2.40;99.90
5392;DHT22;2719;53.624;9.786;2024-01-15T11:37:58;2.50;99.90
5392;DHT22;2719;53.624;9.786;2024-01-15T11:40:41;2.50;99.90
5392;DHT22;2719;53.624;9.786;2024-01-15T11:43:10;2.50;99.90
5392;DHT22;2719;53.624;9.786;2024-01-15T11:45:39;2.50;99.90
5392;DHT22;2719;53.624;9.786;2024-01-15T11:48:12;2.50;99.90
5392;DHT22;2719;53.624;9.786;2024-01-15T11:50:42;2.40;99.90
5392;DHT22;2719;53.624;9.786;2024-01-15T11:53:32;2.40;99.90
5392;DHT22;2719;53.624;9.786;2024-01-15T11:56:02;2.30;99.90
5392;DHT22;2719;53.624;9.786;2024-01-15T11:58:29;2.30;99.90
5392;DHT22;2719;53.624;9.786;2024-01-15T12:00:57;2.30;99.90
5392;DHT22;2719;53.624;9.786;2024-01-15T12:03:25;2.20;99.90
5392;DHT22;2719;53.624;9.786;2024-01-15T12:05:52;2.20;99.90
5392;DHT22;2719;53.624;9.786;2024-01-15T12:08:21;2.20;99.90
5392;DHT22;2719;53.624;9.786;2024-01-15T12:10:48;2.20;99.90
5392;DHT22;2719;53.624;9.786;2024-01-15T12:13:15;2.10;99.90
5392;DHT22;2719;53.624;9.786;2024-01-15T12:15:44;2.20;99.90
5392;DHT22;2719;53.624;9.786;2024-01-15T12:18:14;2.20;99.90
5392;DHT22;2719;53.624;9.786;2024-01-15T12:20:41;2.30;99.90
5392;DHT22;2719;53.624;9.786;2024-01-15T12:23:09;2.40;99.90
5392;DHT22;2719;53.624;9.786;2024-01-15T12:25:36;2.40;99.90
5392;DHT22;2719;53.624;9.786;2024-01-15T12:28:04;2.40;99.90
5392;DHT22;2719;53.624;9.786;2024-01-15T12:30:32;2.40;99.90
5392;DHT22;2719;53.624;9.786;2024-01-15T12:33:01;2.40;99.90
5392;DHT22;2719;53.624;9.786;2024-01-15T12:35:30;2.50;99.90
5392;DHT22;2719;53.624;9.786;2024-01-15T12:37:59;2.50;99.90
5392;DHT22;2719;53.624;9.786;2024-01-15T12:40:26;2.40;99.90
5392;DHT22;2719;53.624;9.786;2024-01-15T12:42:52;2.30;99.90
5392;DHT22;2719;53.624;9.786;2024-01-15T12:45:18;2.30;99.90
5392;DHT22;2719;53.624;9.786;2024-01-15T12:47:46;2.40;99.90
5392;DHT22;2719;53.624;9.786;2024-01-15T12:50:13;2.50;99.90
5392;DHT22;2719;53.624;9.786;2024-01-15T12:52:41;2.50;99.90
5392;DHT22;2719;53.624;9.786;2024-01-15T12:55:08;2.50;99.90
5392;DHT22;2719;53.624;9.786;2024-01-15T12:57:36;2.50;99.90
5392;DHT22;2719;53.624;9.786;2024-01-15T13:00:03;2.40;99.90
5392;DHT22;2719;53.624;9.786;2024-01-15T13:02:32;2.40;99.90
5392;DHT22;2719;53.624;9.786;2024-01-15T13:04:59;2.40;99.90
5392;DHT22;2719;53.624;9.786;2024-01-15T13:07:25;2.50;99.90
5392;DHT22;2719;53.624;9.786;2024-01-15T13:09:53;2.40;99.90
5392;DHT22;2719;53.624;9.786;2024-01-15T13:12:20;2.40;99.90
5392;DHT22;2719;53.624;9.786;2024-01-15T13:14:47;2.40;99.90
5392;DHT22;2719;53.624;9.786;2024-01-15T13:17:14;2.40;99.90
5392;DHT22;2719;53.624;9.786;2024-01-15T13:19:41;2.40;99.90
5392;DHT22;2719;53.624;9.786;2024-01-15T13:22:08;2.40;99.90
5392;DHT22;2719;53.624;9.786;2024-01-15T13:24:35;2.40;99.90
5392;DHT22;2719;53.624;9.786;2024-01-15T13:27:03;2.30;99.90
5392;DHT22;2719;53.624;9.786;2024-01-15T13:29:31;2.40;99.90
5392;DHT22;2719;53.624;9.786;2024-01-15T13:31:58;2.40;99.90
5392;DHT22;2719;53.624;9.786;2024-01-15T13:34:24;2.40;99.90
5392;DHT22;2719;53.624;9.786;2024-01-15T13:36:51;2.50;99.90
5392;DHT22;2719;53.624;9.786;2024-01-15T13:39:19;2.50;99.90
5392;DHT22;2719;53.624;9.786;2024-01-15T13:41:46;2.40;99.90
5392;DHT22;2719;53.624;9.786;2024-01-15T13:44:14;2.50;99.90
5392;DHT22;2719;53.624;9.786;2024-01-15T13:46:41;2.50;99.90
5392;DHT22;2719;53.624;9.786;2024-01-15T13:49:08;2.40;99.90
5392;DHT22;2719;53.624;9.786;2024-01-15T13:51:35;2.50;99.90
5392;DHT22;2719;53.624;9.786;2024-01-15T13:54:02;2.40;99.90
5392;DHT22;2719;53.624;9.786;2024-01-15T13:56:29;2.40;99.90
5392;DHT22;2719;53.624;9.786;2024-01-15T13:58:57;2.50;99.90
5392;DHT22;2719;53.624;9.786;2024-01-15T14:01:26;2.50;99.90
5392;DHT22;2719;53.624;9.786;2024-01-15T14:03:54;2.60;99.90
5392;DHT22;2719;53.624;9.786;2024-01-15T14:06:20;2.50;99.90
5392;DHT22;2719;53.624;9.786;2024-01-15T14:08:47;2.60;99.90
5392;DHT22;2719;53.624;9.786;2024-01-15T14:11:13;2.70;99.90
5392;DHT22;2719;53.624;9.786;2024-01-15T14:13:40;2.70;99.90
5392;DHT22;2719;53.624;9.786;2024-01-15T14:16:07;2.70;99.90
5392;DHT22;2719;53.624;9.786;2024-01-15T14:18:36;2.70;99.90
5392;DHT22;2719;53.624;9.786;2024-01-15T14:21:02;2.60;99.90
5392;DHT22;2719;53.624;9.786;2024-01-15T14:23:29;2.60;99.90
5392;DHT22;2719;53.624;9.786;2024-01-15T14:25:56;2.60;99.90
5392;DHT22;2719;53.624;9.786;2024-01-15T14:28:23;2.70;99.90
5392;DHT22;2719;53.624;9.786;2024-01-15T14:30:49;2.70;99.90
5392;DHT22;2719;53.624;9.786;2024-01-15T14:33:16;2.70;99.90
5392;DHT22;2719;53.624;9.786;2024-01-15T14:35:44;2.70;99.90
5392;DHT22;2719;53.624;9.786;2024-01-15T14:38:11;2.80;99.90
5392;DHT22;2719;53.624;9.786;2024-01-15T14:40:38;2.80;99.90
5392;DHT22;2719;53.624;9.786;2024-01-15T14:43:04;2.90;99.90
5392;DHT22;2719;53.624;9.786;2024-01-15T14:45:31;2.90;99.90
5392;DHT22;2719;53.624;9.786;2024-01-15T14:47:58;2.80;99.90
5392;DHT22;2719;53.624;9.786;2024-01-15T14:50:24;2.80;99.90
5392;DHT22;2719;53.624;9.786;2024-01-15T14:52:53;2.90;99.90
5392;DHT22;2719;53.624;9.786;2024-01-15T14:55:19;2.80;99.90
5392;DHT22;2719;53.624;9.786;2024-01-15T14:57:48;2.70;99.90
5392;DHT22;2719;53.624;9.786;2024-01-15T15:00:15;2.70;99.90
5392;DHT22;2719;53.624;9.786;2024-01-15T15:02:42;2.70;99.90
5392;DHT22;2719;53.624;9.786;2024-01-15T15:05:09;2.60;99.90
5392;DHT22;2719;53.624;9.786;2024-01-15T15:07:38;2.70;99.90
5392;DHT22;2719;53.624;9.786;2024-01-15T15:10:08;2.50;99.90
5392;DHT22;2719;53.624;9.786;2024-01-15T15:12:36;2.60;99.90
5392;DHT22;2719;53.624;9.786;2024-01-15T15:15:03;2.50;99.90
5392;DHT22;2719;53.624;9.786;2024-01-15T15:17:30;2.50;99.90
5392;DHT22;2719;53.624;9.786;2024-01-15T15:19:56;2.50;99.90
5392;DHT22;2719;53.624;9.786;2024-01-15T15:22:23;2.40;99.90
5392;DHT22;2719;53.624;9.786;2024-01-15T15:24:50;2.40;99.90
5392;DHT22;2719;53.624;9.786;2024-01-15T15:27:17;2.30;99.90
5392;DHT22;2719;53.624;9.786;2024-01-15T15:29:44;2.20;99.90
5392;DHT22;2719;53.624;9.786;2024-01-15T15:32:11;2.20;99.90
5392;DHT22;2719;53.624;9.786;2024-01-15T15:34:38;2.20;99.90
5392;DHT22;2719;53.624;9.786;2024-01-15T15:37:04;2.20;99.90
5392;DHT22;2719;53.624;9.786;2024-01-15T15:39:31;2.20;99.90
5392;DHT22;2719;53.624;9.786;2024-01-15T15:41:58;2.10;99.90
5392;DHT22;2719;53.624;9.786;2024-01-15T15:44:26;2.20;99.90
5392;DHT22;2719;53.624;9.786;2024-01-15T15:46:53;2.20;99.90
5392;DHT22;2719;53.624;9.786;2024-01-15T15:49:19;2.20;99.90
5392;DHT22;2719;53.624;9.786;2024-01-15T15:51:46;2.30;99.90
5392;DHT22;2719;53.624;9.786;2024-01-15T15:54:13;2.30;99.90
5392;DHT22;2719;53.624;9.786;2024-01-15T15:56:39;2.40;99.90
5392;DHT22;2719;53.624;9.786;2024-01-15T15:59:07;2.30;99.90
5392;DHT22;2719;53.624;9.786;2024-01-15T16:01:36;2.30;99.90
5392;DHT22;2719;53.624;9.786;2024-01-15T16:04:03;2.30;99.90
5392;DHT22;2719;53.624;9.786;2024-01-15T16:06:29;2.40;99.90
5392;DHT22;2719;53.624;9.786;2024-01-15T16:08:56;2.30;99.90
5392;DHT22;2719;53.624;9.786;2024-01-15T16:11:23;2.20;99.90
5392;DHT22;2719;53.624;9.786;2024-01-15T16:13:49;2.20;99.90
5392;DHT22;2719;53.624;9.786;2024-01-15T16:16:16;2.20;99.90
5392;DHT22;2719;53.624;9.786;2024-01-15T16:18:44;2.30;99.90